sensor_id;sensor_type;location;lat;lon;timestamp;P1;durP1;ratioP1;P2;durP2;ratioP2
49834;SDS011;35729;52.090;13.162;2023-03-23T00:00:35;2.30;;;1.90;;
49834;SDS011;35729;52.090;13.162;2023-03-23T00:03:04;2.92;;;2.10;;
49834;SDS011;35729;52.090;13.162;2023-03-23T00:05:32;6.10;;;3.67;;
49834;SDS011;35729;52.090;13.162;2023-03-23T00:08:02;2.75;;;2.25;;
49834;SDS011;35729;52.090;13.162;2023-03-23T00:10:34;3.33;;;2.50;;
49834;SDS011;35729;52.090;13.162;2023-03-23T00:13:02;3.22;;;1.95;;
49834;SDS011;35729;52.090;13.162;2023-03-23T00:15:31;2.25;;;1.98;;
49834;SDS011;35729;52.090;13.162;2023-03-23T00:18:00;2.75;;;1.80;;
49834;SDS011;35729;52.090;13.162;2023-03-23T00:20:30;3.63;;;2.20;;
49834;SDS011;35729;52.090;13.162;2023-03-23T00:23:05;2.95;;;1.90;;
49834;SDS011;35729;52.090;13.162;2023-03-23T00:25:36;4.07;;;2.08;;
49834;SDS011;35729;52.090;13.162;2023-03-23T00:28:04;3.20;;;1.83;;
49834;SDS011;35729;52.090;13.162;2023-03-23T00:30:34;3.25;;;1.73;;
49834;SDS011;35729;52.090;13.162;2023-03-23T00:33:02;2.17;;;1.67;;
49834;SDS011;35729;52.090;13.162;2023-03-23T00:35:31;3.35;;;1.63;;
49834;SDS011;35729;52.090;13.162;2023-03-23T00:37:59;3.90;;;1.60;;
49834;SDS011;35729;52.090;13.162;2023-03-23T00:40:29;2.25;;;1.77;;
49834;SDS011;35729;52.090;13.162;2023-03-23T00:43:03;3.20;;;1.85;;
49834;SDS011;35729;52.090;13.162;2023-03-23T00:45:31;4.20;;;1.73;;
49834;SDS011;35729;52.090;13.162;2023-03-23T00:48:01;2.45;;;1.80;;
49834;SDS011;35729;52.090;13.162;2023-03-23T00:50:30;4.15;;;1.83;;
49834;SDS011;35729;52.090;13.162;2023-03-23T00:52:59;4.90;;;1.88;;
49834;SDS011;35729;52.090;13.162;2023-03-23T00:55:27;3.45;;;2.33;;
49834;SDS011;35729;52.090;13.162;2023-03-23T00:57:56;2.67;;;1.75;;
49834;SDS011;35729;52.090;13.162;2023-03-23T01:00:27;3.70;;;1.90;;
49834;SDS011;35729;52.090;13.162;2023-03-23T01:02:55;3.28;;;1.83;;
49834;SDS011;35729;52.090;13.162;2023-03-23T01:05:24;3.10;;;1.70;;
49834;SDS011;35729;52.090;13.162;2023-03-23T01:07:57;2.60;;;1.90;;
49834;SDS011;35729;52.090;13.162;2023-03-23T01:10:26;2.60;;;1.92;;
49834;SDS011;35729;52.090;13.162;2023-03-23T01:12:57;3.42;;;2.05;;
49834;SDS011;35729;52.090;13.162;2023-03-23T01:15:29;3.08;;;1.85;;
49834;SDS011;35729;52.090;13.162;2023-03-23T01:17:57;3.60;;;2.25;;
49834;SDS011;35729;52.090;13.162;2023-03-23T01:20:26;2.35;;;1.70;;
49834;SDS011;35729;52.090;13.162;2023-03-23T01:22:56;2.33;;;1.55;;
49834;SDS011;35729;52.090;13.162;2023-03-23T01:25:26;3.67;;;1.88;;
49834;SDS011;35729;52.090;13.162;2023-03-23T01:27:55;4.40;;;1.70;;
49834;SDS011;35729;52.090;13.162;2023-03-23T01:30:24;3.78;;;1.80;;
49834;SDS011;35729;52.090;13.162;2023-03-23T01:32:56;3.50;;;2.13;;
49834;SDS011;35729;52.090;13.162;2023-03-23T01:35:24;1.90;;;1.42;;
49834;SDS011;35729;52.090;13.162;2023-03-23T01:37:53;1.63;;;1.52;;
49834;SDS011;35729;52.090;13.162;2023-03-23T01:40:21;4.90;;;1.70;;
49834;SDS011;35729;52.090;13.162;2023-03-23T01:42:50;2.90;;;2.15;;
49834;SDS011;35729;52.090;13.162;2023-03-23T01:45:26;2.92;;;1.63;;
49834;SDS011;35729;52.090;13.162;2023-03-23T01:48:14;2.70;;;1.83;;
49834;SDS011;35729;52.090;13.162;2023-03-23T01:50:47;4.40;;;1.95;;
49834;SDS011;35729;52.090;13.162;2023-03-23T01:53:20;8.35;;;1.70;;
49834;SDS011;35729;52.090;13.162;2023-03-23T01:55:49;3.20;;;2.00;;
49834;SDS011;35729;52.090;13.162;2023-03-23T01:58:21;4.28;;;1.83;;
49834;SDS011;35729;52.090;13.162;2023-03-23T02:00:55;2.10;;;1.65;;
49834;SDS011;35729;52.090;13.162;2023-03-23T02:03:29;2.63;;;1.80;;
49834;SDS011;35729;52.090;13.162;2023-03-23T02:06:00;2.87;;;2.07;;
49834;SDS011;35729;52.090;13.162;2023-03-23T02:08:28;2.97;;;1.90;;
49834;SDS011;35729;52.090;13.162;2023-03-23T02:10:58;2.42;;;1.58;;
49834;SDS011;35729;52.090;13.162;2023-03-23T02:13:27;3.10;;;1.70;;
49834;SDS011;35729;52.090;13.162;2023-03-23T02:15:59;2.85;;;1.65;;
49834;SDS011;35729;52.090;13.162;2023-03-23T02:18:41;2.97;;;1.75;;
49834;SDS011;35729;52.090;13.162;2023-03-23T02:21:29;3.60;;;1.52;;
49834;SDS011;35729;52.090;13.162;2023-03-23T02:24:42;2.58;;;1.77;;
49834;SDS011;35729;52.090;13.162;2023-03-23T02:27:27;3.25;;;1.88;;
49834;SDS011;35729;52.090;13.162;2023-03-23T02:30:27;4.45;;;1.40;;
49834;SDS011;35729;52.090;13.162;2023-03-23T02:33:20;2.45;;;1.50;;
49834;SDS011;35729;52.090;13.162;2023-03-23T02:35:58;2.40;;;1.50;;
49834;SDS011;35729;52.090;13.162;2023-03-23T02:38:30;3.55;;;1.77;;
49834;SDS011;35729;52.090;13.162;2023-03-23T02:41:04;2.40;;;1.67;;
49834;SDS011;35729;52.090;13.162;2023-03-23T02:43:33;2.15;;;1.70;;
49834;SDS011;35729;52.090;13.162;2023-03-23T02:46:07;3.97;;;1.70;;
49834;SDS011;35729;52.090;13.162;2023-03-23T02:48:40;4.45;;;2.97;;
49834;SDS011;35729;52.090;13.162;2023-03-23T02:51:13;2.58;;;2.05;;
49834;SDS011;35729;52.090;13.162;2023-03-23T02:53:43;4.28;;;2.25;;
49834;SDS011;35729;52.090;13.162;2023-03-23T02:56:13;3.95;;;2.10;;
49834;SDS011;35729;52.090;13.162;2023-03-23T02:58:42;2.53;;;1.60;;
49834;SDS011;35729;52.090;13.162;2023-03-23T03:04:30;3.58;;;2.00;;
49834;SDS011;35729;52.090;13.162;2023-03-23T03:07:05;4.93;;;1.90;;
49834;SDS011;35729;52.090;13.162;2023-03-23T03:09:45;4.35;;;2.03;;
49834;SDS011;35729;52.090;13.162;2023-03-23T03:12:20;2.65;;;1.75;;
49834;SDS011;35729;52.090;13.162;2023-03-23T03:15:02;2.03;;;1.60;;
49834;SDS011;35729;52.090;13.162;2023-03-23T03:17:40;2.08;;;1.55;;
49834;SDS011;35729;52.090;13.162;2023-03-23T03:20:18;3.15;;;1.90;;
49834;SDS011;35729;52.090;13.162;2023-03-23T03:22:50;3.78;;;1.73;;
49834;SDS011;35729;52.090;13.162;2023-03-23T03:25:19;4.32;;;1.67;;
49834;SDS011;35729;52.090;13.162;2023-03-23T03:27:48;1.80;;;1.55;;
49834;SDS011;35729;52.090;13.162;2023-03-23T03:30:17;2.10;;;1.60;;
49834;SDS011;35729;52.090;13.162;2023-03-23T03:32:49;2.13;;;1.50;;
49834;SDS011;35729;52.090;13.162;2023-03-23T03:35:22;2.17;;;1.73;;
49834;SDS011;35729;52.090;13.162;2023-03-23T03:37:52;2.97;;;1.52;;
49834;SDS011;35729;52.090;13.162;2023-03-23T03:40:22;1.83;;;1.40;;
49834;SDS011;35729;52.090;13.162;2023-03-23T03:42:51;3.03;;;1.67;;
49834;SDS011;35729;52.090;13.162;2023-03-23T03:45:19;1.80;;;1.40;;
49834;SDS011;35729;52.090;13.162;2023-03-23T03:47:48;2.67;;;1.58;;
49834;SDS011;35729;52.090;13.162;2023-03-23T03:50:17;3.78;;;1.70;;
49834;SDS011;35729;52.090;13.162;2023-03-23T03:52:48;3.63;;;1.80;;
49834;SDS011;35729;52.090;13.162;2023-03-23T03:55:17;4.68;;;1.40;;
49834;SDS011;35729;52.090;13.162;2023-03-23T03:57:46;1.75;;;1.52;;
49834;SDS011;35729;52.090;13.162;2023-03-23T04:00:15;2.85;;;1.50;;
49834;SDS011;35729;52.090;13.162;2023-03-23T04:02:45;3.15;;;1.42;;
49834;SDS011;35729;52.090;13.162;2023-03-23T04:05:16;2.42;;;1.50;;
49834;SDS011;35729;52.090;13.162;2023-03-23T04:07:48;3.05;;;1.27;;
49834;SDS011;35729;52.090;13.162;2023-03-23T04:10:24;2.72;;;1.40;;
49834;SDS011;35729;52.090;13.162;2023-03-23T04:12:53;2.50;;;1.50;;
49834;SDS011;35729;52.090;13.162;2023-03-23T04:15:21;2.53;;;1.58;;
49834;SDS011;35729;52.090;13.162;2023-03-23T04:17:50;2.67;;;1.98;;
49834;SDS011;35729;52.090;13.162;2023-03-23T04:20:19;2.42;;;1.55;;
49834;SDS011;35729;52.090;13.162;2023-03-23T04:22:50;2.88;;;1.75;;
49834;SDS011;35729;52.090;13.162;2023-03-23T04:25:20;2.15;;;1.65;;
49834;SDS011;35729;52.090;13.162;2023-03-23T04:27:49;4.72;;;1.83;;
49834;SDS011;35729;52.090;13.162;2023-03-23T04:30:21;2.92;;;1.58;;
49834;SDS011;35729;52.090;13.162;2023-03-23T04:32:52;3.35;;;1.98;;
49834;SDS011;35729;52.090;13.162;2023-03-23T04:35:21;1.65;;;1.52;;
49834;SDS011;35729;52.090;13.162;2023-03-23T04:37:54;2.33;;;1.50;;
49834;SDS011;35729;52.090;13.162;2023-03-23T04:40:23;3.20;;;1.58;;
49834;SDS011;35729;52.090;13.162;2023-03-23T04:42:52;2.13;;;1.67;;
49834;SDS011;35729;52.090;13.162;2023-03-23T04:45:22;3.92;;;1.60;;
49834;SDS011;35729;52.090;13.162;2023-03-23T04:47:51;2.60;;;1.70;;
49834;SDS011;35729;52.090;13.162;2023-03-23T04:50:22;2.20;;;1.33;;
49834;SDS011;35729;52.090;13.162;2023-03-23T04:52:54;2.17;;;1.50;;
49834;SDS011;35729;52.090;13.162;2023-03-23T04:55:24;2.58;;;1.30;;
49834;SDS011;35729;52.090;13.162;2023-03-23T04:57:53;2.08;;;1.15;;
49834;SDS011;35729;52.090;13.162;2023-03-23T05:00:25;3.00;;;1.33;;
49834;SDS011;35729;52.090;13.162;2023-03-23T05:02:54;2.05;;;1.50;;
49834;SDS011;35729;52.090;13.162;2023-03-23T05:05:22;3.42;;;1.50;;
49834;SDS011;35729;52.090;13.162;2023-03-23T05:07:55;2.00;;;1.48;;
49834;SDS011;35729;52.090;13.162;2023-03-23T05:10:23;3.00;;;1.55;;
49834;SDS011;35729;52.090;13.162;2023-03-23T05:12:52;3.33;;;1.08;;
49834;SDS011;35729;52.090;13.162;2023-03-23T05:15:21;3.83;;;1.73;;
49834;SDS011;35729;52.090;13.162;2023-03-23T05:17:52;5.65;;;3.15;;
49834;SDS011;35729;52.090;13.162;2023-03-23T05:20:21;8.05;;;4.18;;
49834;SDS011;35729;52.090;13.162;2023-03-23T05:22:50;5.65;;;3.80;;
49834;SDS011;35729;52.090;13.162;2023-03-23T05:25:21;5.47;;;2.75;;
49834;SDS011;35729;52.090;13.162;2023-03-23T05:27:49;4.20;;;2.75;;
49834;SDS011;35729;52.090;13.162;2023-03-23T05:30:19;2.50;;;1.83;;
49834;SDS011;35729;52.090;13.162;2023-03-23T05:32:48;3.03;;;2.00;;
49834;SDS011;35729;52.090;13.162;2023-03-23T05:35:18;2.60;;;1.38;;
49834;SDS011;35729;52.090;13.162;2023-03-23T05:37:47;2.42;;;1.30;;
49834;SDS011;35729;52.090;13.162;2023-03-23T05:40:21;4.47;;;1.38;;
49834;SDS011;35729;52.090;13.162;2023-03-23T05:42:56;4.53;;;1.70;;
49834;SDS011;35729;52.090;13.162;2023-03-23T05:45:25;3.13;;;1.30;;
49834;SDS011;35729;52.090;13.162;2023-03-23T05:47:54;3.40;;;1.15;;
49834;SDS011;35729;52.090;13.162;2023-03-23T05:50:22;2.90;;;1.30;;
49834;SDS011;35729;52.090;13.162;2023-03-23T05:52:51;2.40;;;1.13;;
49834;SDS011;35729;52.090;13.162;2023-03-23T05:55:22;1.83;;;1.00;;
49834;SDS011;35729;52.090;13.162;2023-03-23T05:57:50;2.47;;;1.52;;
49834;SDS011;35729;52.090;13.162;2023-03-23T06:00:19;2.47;;;1.20;;
49834;SDS011;35729;52.090;13.162;2023-03-23T06:02:48;1.92;;;1.10;;
49834;SDS011;35729;52.090;13.162;2023-03-23T06:05:19;3.97;;;1.20;;
49834;SDS011;35729;52.090;13.162;2023-03-23T06:07:48;3.70;;;1.33;;
49834;SDS011;35729;52.090;13.162;2023-03-23T06:10:17;3.85;;;1.17;;
49834;SDS011;35729;52.090;13.162;2023-03-23T06:12:48;2.20;;;1.58;;
49834;SDS011;35729;52.090;13.162;2023-03-23T06:15:18;3.30;;;1.45;;
49834;SDS011;35729;52.090;13.162;2023-03-23T06:17:47;2.67;;;1.00;;
49834;SDS011;35729;52.090;13.162;2023-03-23T06:20:21;1.45;;;1.15;;
49834;SDS011;35729;52.090;13.162;2023-03-23T06:22:50;2.05;;;1.00;;
49834;SDS011;35729;52.090;13.162;2023-03-23T06:25:18;4.10;;;1.38;;
49834;SDS011;35729;52.090;13.162;2023-03-23T06:27:50;2.55;;;1.27;;
49834;SDS011;35729;52.090;13.162;2023-03-23T06:30:19;3.17;;;1.50;;
49834;SDS011;35729;52.090;13.162;2023-03-23T06:32:47;2.42;;;1.60;;
49834;SDS011;35729;52.090;13.162;2023-03-23T06:35:16;2.53;;;1.58;;
49834;SDS011;35729;52.090;13.162;2023-03-23T06:37:45;2.80;;;1.77;;
49834;SDS011;35729;52.090;13.162;2023-03-23T06:40:13;7.50;;;3.00;;
49834;SDS011;35729;52.090;13.162;2023-03-23T06:42:43;2.63;;;1.42;;
49834;SDS011;35729;52.090;13.162;2023-03-23T06:45:14;5.40;;;2.08;;
49834;SDS011;35729;52.090;13.162;2023-03-23T06:47:44;1.90;;;1.42;;
49834;SDS011;35729;52.090;13.162;2023-03-23T06:50:13;4.18;;;1.88;;
49834;SDS011;35729;52.090;13.162;2023-03-23T06:52:44;3.83;;;1.50;;
49834;SDS011;35729;52.090;13.162;2023-03-23T06:55:13;2.60;;;1.33;;
49834;SDS011;35729;52.090;13.162;2023-03-23T06:57:43;4.45;;;1.90;;
49834;SDS011;35729;52.090;13.162;2023-03-23T07:00:15;2.63;;;1.67;;
49834;SDS011;35729;52.090;13.162;2023-03-23T07:02:44;3.63;;;1.83;;
49834;SDS011;35729;52.090;13.162;2023-03-23T07:05:12;3.30;;;1.98;;
49834;SDS011;35729;52.090;13.162;2023-03-23T07:07:41;2.92;;;2.00;;
49834;SDS011;35729;52.090;13.162;2023-03-23T07:10:09;2.58;;;1.88;;
49834;SDS011;35729;52.090;13.162;2023-03-23T07:12:38;4.53;;;3.10;;
49834;SDS011;35729;52.090;13.162;2023-03-23T07:15:07;3.03;;;2.20;;
49834;SDS011;35729;52.090;13.162;2023-03-23T07:17:40;6.75;;;2.45;;
49834;SDS011;35729;52.090;13.162;2023-03-23T07:20:09;4.60;;;2.22;;
49834;SDS011;35729;52.090;13.162;2023-03-23T07:22:39;3.72;;;2.00;;
49834;SDS011;35729;52.090;13.162;2023-03-23T07:25:08;2.75;;;2.33;;
49834;SDS011;35729;52.090;13.162;2023-03-23T07:27:37;4.53;;;2.25;;
49834;SDS011;35729;52.090;13.162;2023-03-23T07:30:06;4.95;;;2.50;;
49834;SDS011;35729;52.090;13.162;2023-03-23T07:32:36;5.43;;;2.42;;
49834;SDS011;35729;52.090;13.162;2023-03-23T07:35:07;5.65;;;2.50;;
49834;SDS011;35729;52.090;13.162;2023-03-23T07:37:36;6.68;;;3.55;;
49834;SDS011;35729;52.090;13.162;2023-03-23T07:40:05;5.07;;;2.88;;
49834;SDS011;35729;52.090;13.162;2023-03-23T07:42:40;5.10;;;2.38;;
49834;SDS011;35729;52.090;13.162;2023-03-23T07:45:10;7.75;;;3.28;;
49834;SDS011;35729;52.090;13.162;2023-03-23T07:47:39;7.28;;;4.15;;
49834;SDS011;35729;52.090;13.162;2023-03-23T07:50:11;8.02;;;3.67;;
49834;SDS011;35729;52.090;13.162;2023-03-23T07:52:40;7.57;;;3.63;;
49834;SDS011;35729;52.090;13.162;2023-03-23T07:55:09;6.13;;;4.13;;
49834;SDS011;35729;52.090;13.162;2023-03-23T07:57:42;5.32;;;3.50;;
49834;SDS011;35729;52.090;13.162;2023-03-23T08:00:11;4.57;;;3.15;;
49834;SDS011;35729;52.090;13.162;2023-03-23T08:02:44;5.25;;;2.78;;
49834;SDS011;35729;52.090;13.162;2023-03-23T08:05:16;4.63;;;2.50;;
49834;SDS011;35729;52.090;13.162;2023-03-23T08:07:45;5.43;;;3.00;;
49834;SDS011;35729;52.090;13.162;2023-03-23T08:10:15;3.80;;;2.45;;
49834;SDS011;35729;52.090;13.162;2023-03-23T08:12:50;4.15;;;2.65;;
49834;SDS011;35729;52.090;13.162;2023-03-23T08:15:26;2.95;;;2.10;;
49834;SDS011;35729;52.090;13.162;2023-03-23T08:17:55;3.33;;;2.38;;
49834;SDS011;35729;52.090;13.162;2023-03-23T08:20:27;5.18;;;2.38;;
49834;SDS011;35729;52.090;13.162;2023-03-23T08:22:56;3.28;;;1.95;;
49834;SDS011;35729;52.090;13.162;2023-03-23T08:25:25;4.88;;;2.10;;
49834;SDS011;35729;52.090;13.162;2023-03-23T08:27:56;2.97;;;2.15;;
49834;SDS011;35729;52.090;13.162;2023-03-23T08:30:26;7.07;;;1.88;;
49834;SDS011;35729;52.090;13.162;2023-03-23T08:32:57;2.25;;;1.77;;
49834;SDS011;35729;52.090;13.162;2023-03-23T08:35:30;3.60;;;1.67;;
49834;SDS011;35729;52.090;13.162;2023-03-23T08:37:59;2.35;;;1.60;;
49834;SDS011;35729;52.090;13.162;2023-03-23T08:40:28;2.30;;;2.10;;
49834;SDS011;35729;52.090;13.162;2023-03-23T08:42:57;2.92;;;1.70;;
49834;SDS011;35729;52.090;13.162;2023-03-23T08:45:26;5.10;;;1.80;;
49834;SDS011;35729;52.090;13.162;2023-03-23T08:47:55;3.53;;;2.10;;
49834;SDS011;35729;52.090;13.162;2023-03-23T08:50:24;3.55;;;1.90;;
49834;SDS011;35729;52.090;13.162;2023-03-23T08:52:58;4.93;;;1.42;;
49834;SDS011;35729;52.090;13.162;2023-03-23T08:55:27;2.08;;;1.80;;
49834;SDS011;35729;52.090;13.162;2023-03-23T08:57:56;3.67;;;1.85;;
49834;SDS011;35729;52.090;13.162;2023-03-23T09:00:25;2.95;;;1.30;;
49834;SDS011;35729;52.090;13.162;2023-03-23T09:02:54;2.50;;;1.67;;
49834;SDS011;35729;52.090;13.162;2023-03-23T09:05:23;2.10;;;1.15;;
49834;SDS011;35729;52.090;13.162;2023-03-23T09:07:54;2.45;;;1.50;;
49834;SDS011;35729;52.090;13.162;2023-03-23T09:10:27;3.17;;;1.63;;
49834;SDS011;35729;52.090;13.162;2023-03-23T09:12:56;3.08;;;1.42;;
49834;SDS011;35729;52.090;13.162;2023-03-23T09:15:25;4.25;;;1.85;;
49834;SDS011;35729;52.090;13.162;2023-03-23T09:17:53;2.00;;;1.33;;
49834;SDS011;35729;52.090;13.162;2023-03-23T09:20:23;2.83;;;1.40;;
49834;SDS011;35729;52.090;13.162;2023-03-23T09:22:53;2.35;;;1.88;;
49834;SDS011;35729;52.090;13.162;2023-03-23T09:25:24;2.20;;;1.17;;
49834;SDS011;35729;52.090;13.162;2023-03-23T09:27:57;2.30;;;1.45;;
49834;SDS011;35729;52.090;13.162;2023-03-23T09:30:27;2.95;;;1.38;;
49834;SDS011;35729;52.090;13.162;2023-03-23T09:32:59;2.35;;;1.60;;
49834;SDS011;35729;52.090;13.162;2023-03-23T09:35:28;2.88;;;1.70;;
49834;SDS011;35729;52.090;13.162;2023-03-23T09:37:57;2.95;;;1.48;;
49834;SDS011;35729;52.090;13.162;2023-03-23T09:40:31;2.90;;;1.85;;
49834;SDS011;35729;52.090;13.162;2023-03-23T09:43:16;3.22;;;1.73;;
49834;SDS011;35729;52.090;13.162;2023-03-23T09:45:54;2.20;;;1.20;;
49834;SDS011;35729;52.090;13.162;2023-03-23T09:48:31;3.13;;;1.75;;
49834;SDS011;35729;52.090;13.162;2023-03-23T09:51:08;2.45;;;1.30;;
49834;SDS011;35729;52.090;13.162;2023-03-23T09:53:45;1.98;;;1.65;;
49834;SDS011;35729;52.090;13.162;2023-03-23T09:56:20;1.95;;;1.42;;
49834;SDS011;35729;52.090;13.162;2023-03-23T09:58:51;2.05;;;1.50;;
49834;SDS011;35729;52.090;13.162;2023-03-23T10:01:25;2.08;;;1.40;;
49834;SDS011;35729;52.090;13.162;2023-03-23T10:03:59;2.25;;;1.40;;
49834;SDS011;35729;52.090;13.162;2023-03-23T10:09:02;3.78;;;2.05;;
49834;SDS011;35729;52.090;13.162;2023-03-23T10:11:37;3.58;;;1.50;;
49834;SDS011;35729;52.090;13.162;2023-03-23T10:14:18;2.53;;;1.48;;
49834;SDS011;35729;52.090;13.162;2023-03-23T10:16:56;2.42;;;1.50;;
49834;SDS011;35729;52.090;13.162;2023-03-23T10:19:33;3.70;;;1.73;;
49834;SDS011;35729;52.090;13.162;2023-03-23T10:22:08;3.50;;;1.67;;
49834;SDS011;35729;52.090;13.162;2023-03-23T10:24:40;3.45;;;1.77;;
49834;SDS011;35729;52.090;13.162;2023-03-23T10:27:17;4.00;;;1.88;;
49834;SDS011;35729;52.090;13.162;2023-03-23T10:29:52;2.53;;;1.65;;
49834;SDS011;35729;52.090;13.162;2023-03-23T10:32:36;2.17;;;1.58;;
49834;SDS011;35729;52.090;13.162;2023-03-23T10:35:14;1.98;;;1.52;;
49834;SDS011;35729;52.090;13.162;2023-03-23T10:37:47;2.30;;;1.63;;
49834;SDS011;35729;52.090;13.162;2023-03-23T10:40:19;2.42;;;1.67;;
49834;SDS011;35729;52.090;13.162;2023-03-23T10:42:54;3.65;;;1.50;;
49834;SDS011;35729;52.090;13.162;2023-03-23T10:45:24;3.05;;;1.55;;
49834;SDS011;35729;52.090;13.162;2023-03-23T10:47:58;2.35;;;1.52;;
49834;SDS011;35729;52.090;13.162;2023-03-23T10:50:35;3.90;;;1.55;;
49834;SDS011;35729;52.090;13.162;2023-03-23T10:53:11;2.70;;;1.33;;
49834;SDS011;35729;52.090;13.162;2023-03-23T10:55:43;1.88;;;1.38;;
49834;SDS011;35729;52.090;13.162;2023-03-23T10:58:22;2.33;;;1.58;;
49834;SDS011;35729;52.090;13.162;2023-03-23T11:00:53;2.83;;;1.27;;
49834;SDS011;35729;52.090;13.162;2023-03-23T11:03:27;2.22;;;1.80;;
49834;SDS011;35729;52.090;13.162;2023-03-23T11:06:07;1.85;;;1.55;;
49834;SDS011;35729;52.090;13.162;2023-03-23T11:08:38;4.70;;;1.40;;
49834;SDS011;35729;52.090;13.162;2023-03-23T11:11:16;5.38;;;1.70;;
49834;SDS011;35729;52.090;13.162;2023-03-23T11:13:49;2.35;;;1.60;;
49834;SDS011;35729;52.090;13.162;2023-03-23T11:16:25;2.95;;;2.55;;
49834;SDS011;35729;52.090;13.162;2023-03-23T11:18:56;3.90;;;1.70;;
49834;SDS011;35729;52.090;13.162;2023-03-23T11:21:26;2.78;;;1.67;;
49834;SDS011;35729;52.090;13.162;2023-03-23T11:23:56;2.08;;;1.67;;
49834;SDS011;35729;52.090;13.162;2023-03-23T11:26:28;4.35;;;1.90;;
49834;SDS011;35729;52.090;13.162;2023-03-23T11:29:03;2.22;;;1.70;;
49834;SDS011;35729;52.090;13.162;2023-03-23T11:31:36;2.67;;;2.00;;
49834;SDS011;35729;52.090;13.162;2023-03-23T11:34:09;2.38;;;1.95;;
49834;SDS011;35729;52.090;13.162;2023-03-23T11:36:43;3.38;;;2.30;;
49834;SDS011;35729;52.090;13.162;2023-03-23T11:39:20;7.95;;;6.70;;
49834;SDS011;35729;52.090;13.162;2023-03-23T11:41:58;3.63;;;3.03;;
49834;SDS011;35729;52.090;13.162;2023-03-23T11:44:34;4.25;;;3.85;;
49834;SDS011;35729;52.090;13.162;2023-03-23T11:47:13;2.75;;;1.95;;
49834;SDS011;35729;52.090;13.162;2023-03-23T11:49:47;2.83;;;2.20;;
49834;SDS011;35729;52.090;13.162;2023-03-23T11:52:23;4.25;;;3.35;;
49834;SDS011;35729;52.090;13.162;2023-03-23T11:55:03;2.58;;;2.05;;
49834;SDS011;35729;52.090;13.162;2023-03-23T11:57:37;3.40;;;2.33;;
49834;SDS011;35729;52.090;13.162;2023-03-23T12:00:14;2.15;;;1.95;;
49834;SDS011;35729;52.090;13.162;2023-03-23T12:02:47;4.00;;;1.88;;
49834;SDS011;35729;52.090;13.162;2023-03-23T12:05:38;2.88;;;1.90;;
49834;SDS011;35729;52.090;13.162;2023-03-23T12:08:19;3.70;;;1.92;;
49834;SDS011;35729;52.090;13.162;2023-03-23T12:10:56;2.67;;;2.10;;
49834;SDS011;35729;52.090;13.162;2023-03-23T12:13:34;3.13;;;2.15;;
49834;SDS011;35729;52.090;13.162;2023-03-23T12:16:23;3.55;;;2.30;;
49834;SDS011;35729;52.090;13.162;2023-03-23T12:19:02;3.35;;;1.83;;
49834;SDS011;35729;52.090;13.162;2023-03-23T12:21:39;2.30;;;1.55;;
49834;SDS011;35729;52.090;13.162;2023-03-23T12:24:21;3.67;;;2.72;;
49834;SDS011;35729;52.090;13.162;2023-03-23T12:27:03;3.35;;;1.98;;
49834;SDS011;35729;52.090;13.162;2023-03-23T12:29:40;3.05;;;1.40;;
49834;SDS011;35729;52.090;13.162;2023-03-23T12:35:23;2.90;;;1.88;;
49834;SDS011;35729;52.090;13.162;2023-03-23T12:38:07;4.07;;;1.60;;
49834;SDS011;35729;52.090;13.162;2023-03-23T12:40:47;3.63;;;2.38;;
49834;SDS011;35729;52.090;13.162;2023-03-23T12:43:26;3.33;;;1.38;;
49834;SDS011;35729;52.090;13.162;2023-03-23T12:46:08;1.52;;;1.40;;
49834;SDS011;35729;52.090;13.162;2023-03-23T12:48:48;5.63;;;1.85;;
49834;SDS011;35729;52.090;13.162;2023-03-23T12:51:21;3.55;;;1.27;;
49834;SDS011;35729;52.090;13.162;2023-03-23T12:56:26;3.35;;;1.60;;
49834;SDS011;35729;52.090;13.162;2023-03-23T12:59:03;2.10;;;1.50;;
49834;SDS011;35729;52.090;13.162;2023-03-23T13:01:46;2.85;;;1.98;;
49834;SDS011;35729;52.090;13.162;2023-03-23T13:06:54;1.58;;;1.40;;
49834;SDS011;35729;52.090;13.162;2023-03-23T13:09:24;2.78;;;1.48;;
49834;SDS011;35729;52.090;13.162;2023-03-23T13:11:58;4.13;;;1.75;;
49834;SDS011;35729;52.090;13.162;2023-03-23T13:14:35;3.33;;;1.70;;
49834;SDS011;35729;52.090;13.162;2023-03-23T13:17:13;2.00;;;1.73;;
49834;SDS011;35729;52.090;13.162;2023-03-23T13:19:59;2.95;;;1.92;;
49834;SDS011;35729;52.090;13.162;2023-03-23T13:22:44;2.53;;;1.70;;
49834;SDS011;35729;52.090;13.162;2023-03-23T13:25:19;3.33;;;1.80;;
49834;SDS011;35729;52.090;13.162;2023-03-23T13:28:04;3.05;;;1.38;;
49834;SDS011;35729;52.090;13.162;2023-03-23T13:30:32;3.55;;;1.52;;
49834;SDS011;35729;52.090;13.162;2023-03-23T13:33:02;2.95;;;1.40;;
49834;SDS011;35729;52.090;13.162;2023-03-23T13:35:38;1.95;;;1.35;;
49834;SDS011;35729;52.090;13.162;2023-03-23T13:38:15;4.05;;;1.40;;
49834;SDS011;35729;52.090;13.162;2023-03-23T13:40:49;3.55;;;1.50;;
49834;SDS011;35729;52.090;13.162;2023-03-23T13:43:26;2.17;;;1.27;;
49834;SDS011;35729;52.090;13.162;2023-03-23T13:46:06;4.50;;;1.30;;
49834;SDS011;35729;52.090;13.162;2023-03-23T13:48:40;5.10;;;1.30;;
49834;SDS011;35729;52.090;13.162;2023-03-23T13:54:06;4.78;;;1.23;;
49834;SDS011;35729;52.090;13.162;2023-03-23T13:56:47;3.13;;;1.17;;
49834;SDS011;35729;52.090;13.162;2023-03-23T13:59:28;5.00;;;1.20;;
49834;SDS011;35729;52.090;13.162;2023-03-23T14:04:56;2.30;;;1.13;;
49834;SDS011;35729;52.090;13.162;2023-03-23T14:07:28;2.10;;;1.33;;
49834;SDS011;35729;52.090;13.162;2023-03-23T14:09:56;2.55;;;1.42;;
49834;SDS011;35729;52.090;13.162;2023-03-23T14:12:26;1.95;;;1.23;;
49834;SDS011;35729;52.090;13.162;2023-03-23T14:15:03;2.30;;;1.10;;
49834;SDS011;35729;52.090;13.162;2023-03-23T14:17:33;2.78;;;1.27;;
49834;SDS011;35729;52.090;13.162;2023-03-23T14:20:09;2.63;;;1.50;;
49834;SDS011;35729;52.090;13.162;2023-03-23T14:22:55;2.83;;;1.20;;
49834;SDS011;35729;52.090;13.162;2023-03-23T14:25:26;2.95;;;1.58;;
49834;SDS011;35729;52.090;13.162;2023-03-23T14:27:56;4.22;;;1.30;;
49834;SDS011;35729;52.090;13.162;2023-03-23T14:30:26;5.85;;;1.33;;
49834;SDS011;35729;52.090;13.162;2023-03-23T14:33:03;4.05;;;1.42;;
49834;SDS011;35729;52.090;13.162;2023-03-23T14:35:34;2.40;;;1.25;;
49834;SDS011;35729;52.090;13.162;2023-03-23T14:38:06;3.25;;;1.30;;
49834;SDS011;35729;52.090;13.162;2023-03-23T14:40:43;3.70;;;1.83;;
49834;SDS011;35729;52.090;13.162;2023-03-23T14:43:13;2.35;;;1.02;;
49834;SDS011;35729;52.090;13.162;2023-03-23T14:45:51;1.52;;;0.80;;
49834;SDS011;35729;52.090;13.162;2023-03-23T14:48:21;2.15;;;1.23;;
49834;SDS011;35729;52.090;13.162;2023-03-23T14:50:50;2.42;;;1.02;;
49834;SDS011;35729;52.090;13.162;2023-03-23T14:53:23;2.65;;;0.80;;
49834;SDS011;35729;52.090;13.162;2023-03-23T14:55:53;2.67;;;1.05;;
49834;SDS011;35729;52.090;13.162;2023-03-23T14:58:23;1.45;;;1.00;;
49834;SDS011;35729;52.090;13.162;2023-03-23T15:00:53;6.57;;;0.93;;
49834;SDS011;35729;52.090;13.162;2023-03-23T15:03:25;2.50;;;1.00;;
49834;SDS011;35729;52.090;13.162;2023-03-23T15:05:56;2.92;;;1.55;;
49834;SDS011;35729;52.090;13.162;2023-03-23T15:08:29;2.53;;;1.05;;
49834;SDS011;35729;52.090;13.162;2023-03-23T15:11:03;2.75;;;1.10;;
49834;SDS011;35729;52.090;13.162;2023-03-23T15:13:35;3.17;;;1.00;;
49834;SDS011;35729;52.090;13.162;2023-03-23T15:16:05;1.83;;;0.95;;
49834;SDS011;35729;52.090;13.162;2023-03-23T15:18:40;1.92;;;0.90;;
49834;SDS011;35729;52.090;13.162;2023-03-23T15:21:22;3.67;;;0.93;;
49834;SDS011;35729;52.090;13.162;2023-03-23T15:23:55;1.33;;;0.80;;